Time;durP1;ratioP1;P1;durP2;ratioP2;P2;SDS_P1;SDS_P2;PMS_P1;PMS_P2;Temp;Humidity;BMP_temperature;BMP_pressure;BME280_temperature;BME280_humidity;BME280_pressure;Samples;Min_cycle;Max_cycle;Signal;HPM_P1;HPM_P2
2021/12/26 00:00:28;;;;;;;8.85;2.38;;;;;;;18.67;39.04;101001.97;5030016;28;20132;-71
2021/12/26 00:02:53;;;;;;;8.18;2.78;;;;;;;18.69;39.66;101002.69;5012437;28;20052;-71
2021/12/26 00:05:18;;;;;;;8.45;2.17;;;;;;;18.73;39.16;101000.63;5028871;28;20045;-71
2021/12/26 00:07:44;;;;;;;8.25;2.50;;;;;;;18.77;39.21;100995.88;5029388;28;20045;-71
2021/12/26 00:10:10;;;;;;;8.30;2.70;;;;;;;18.77;39.62;101012.69;5029220;28;20052;-71
2021/12/26 00:12:35;;;;;;;9.88;2.53;;;;;;;18.74;38.57;100997.00;5012119;28;20408;-71
2021/12/26 00:15:01;;;;;;;6.93;2.53;;;;;;;18.74;39.58;101002.31;5028843;28;20048;-70
2021/12/26 00:17:26;;;;;;;7.68;2.33;;;;;;;18.75;39.09;100997.84;5013547;28;20857;-71
2021/12/26 00:19:52;;;;;;;6.85;2.22;;;;;;;18.73;39.03;100996.13;5015300;28;20029;-71
2021/12/26 00:22:17;;;;;;;6.35;2.40;;;;;;;18.72;38.54;100993.59;5048881;28;20052;-71
2021/12/26 00:24:43;;;;;;;6.75;2.50;;;;;;;18.75;39.75;100996.03;5015317;28;20131;-71
2021/12/26 00:27:08;;;;;;;8.13;2.00;;;;;;;18.76;38.68;101010.97;5031019;28;20420;-70
2021/12/26 00:29:34;;;;;;;8.75;2.20;;;;;;;18.78;38.19;101010.84;5030956;28;20041;-71
2021/12/26 00:31:59;;;;;;;6.10;2.00;;;;;;;18.79;38.80;101012.53;5031599;28;20045;-71
2021/12/26 00:34:24;;;;;;;5.22;1.70;;;;;;;18.76;37.93;101012.81;5048659;28;20400;-71
2021/12/26 00:36:50;;;;;;;6.78;1.80;;;;;;;18.73;38.91;101014.75;5049184;28;20045;-71
2021/12/26 00:39:16;;;;;;;6.35;2.00;;;;;;;18.71;38.52;101006.06;5042234;28;20489;-71
2021/12/26 00:41:41;;;;;;;5.47;1.70;;;;;;;18.71;38.11;101007.88;5029304;28;20068;-71
2021/12/26 00:44:07;;;;;;;6.55;1.77;;;;;;;18.70;37.83;101006.19;5010995;28;20110;-70
2021/12/26 00:46:33;;;;;;;5.53;1.60;;;;;;;18.74;38.16;101002.31;4995302;28;20057;-71
2021/12/26 00:48:58;;;;;;;4.68;1.42;;;;;;;18.73;38.47;100995.31;5011445;28;20049;-71
2021/12/26 00:51:23;;;;;;;4.05;1.70;;;;;;;18.76;38.01;100991.53;5028022;28;20045;-70
2021/12/26 00:53:49;;;;;;;3.22;1.45;;;;;;;18.75;38.31;100997.84;5028973;28;20494;-71
2021/12/26 00:56:15;;;;;;;5.22;1.42;;;;;;;18.72;38.41;100989.16;5010759;28;20107;-71
2021/12/26 00:58:40;;;;;;;4.75;1.50;;;;;;;18.70;37.71;100995.53;5011382;28;20120;-71
2021/12/26 01:01:06;;;;;;;5.53;1.40;;;;;;;18.68;38.02;101000.19;5009710;28;20045;-71
2021/12/26 01:03:31;;;;;;;2.90;1.25;;;;;;;18.68;38.06;100985.06;5028198;28;20124;-71
2021/12/26 01:05:57;;;;;;;4.72;1.52;;;;;;;18.68;38.40;100993.03;5011180;28;20046;-71
2021/12/26 01:08:26;;;;;;;3.78;1.17;;;;;;;18.68;37.64;100992.22;5027807;28;20530;-71
2021/12/26 01:10:55;;;;;;;3.40;1.30;;;;;;;18.70;38.01;100999.03;5018526;28;20043;-71
2021/12/26 01:15:49;;;;;;;4.57;1.67;;;;;;;18.66;37.94;100994.97;5010963;28;20046;-71
2021/12/26 01:18:15;;;;;;;3.95;1.58;;;;;;;18.66;37.13;100994.97;5002913;28;20564;-71
2021/12/26 01:24:44;;;;;;;3.85;1.40;;;;;;;18.64;37.93;100986.28;5027373;28;20073;-71
2021/12/26 01:27:09;;;;;;;3.88;1.30;;;;;;;18.68;38.23;100982.41;4994091;28;20055;-71
2021/12/26 01:29:36;;;;;;;4.70;1.42;;;;;;;18.68;38.01;100976.25;5027400;28;20045;-71
2021/12/26 01:32:02;;;;;;;4.38;1.60;;;;;;;18.66;37.26;100973.72;5027249;28;20124;-70
2021/12/26 01:34:28;;;;;;;4.15;1.40;;;;;;;18.62;37.32;100972.31;5027228;28;20053;-71
2021/12/26 01:36:53;;;;;;;3.03;1.17;;;;;;;18.61;37.66;100970.63;5010819;28;20046;-72
2021/12/26 01:39:19;;;;;;;3.28;1.17;;;;;;;18.64;37.44;100980.97;5027950;28;20044;-71
2021/12/26 01:41:45;;;;;;;4.00;1.45;;;;;;;18.64;36.93;100980.16;5002021;28;20045;-71
2021/12/26 01:44:12;;;;;;;3.67;1.20;;;;;;;18.62;36.96;100974.97;5027015;28;20042;-71
2021/12/26 01:46:38;;;;;;;4.15;1.50;;;;;;;18.62;37.57;100982.94;5010690;28;20038;-71
2021/12/26 01:49:24;;;;;;;3.05;1.20;;;;;;;18.63;37.00;100981.97;5027667;28;20041;-71
2021/12/26 01:51:52;;;;;;;4.03;1.20;;;;;;;18.62;37.48;100974.16;5010168;28;20088;-71
2021/12/26 01:54:28;;;;;;;4.35;1.52;;;;;;;18.60;37.21;100979.56;5027786;28;20107;-71
2021/12/26 01:56:54;;;;;;;3.25;1.30;;;;;;;18.59;36.64;100975.25;5012265;28;20080;-71
2021/12/26 01:59:19;;;;;;;3.22;1.30;;;;;;;18.55;36.84;100976.50;5027492;28;20120;-71
2021/12/26 02:01:45;;;;;;;3.72;1.08;;;;;;;18.59;37.49;100977.06;5027093;28;20126;-71
2021/12/26 02:04:10;;;;;;;4.18;1.35;;;;;;;18.56;37.22;100972.88;5016005;28;20120;-71
2021/12/26 02:06:36;;;;;;;2.95;1.02;;;;;;;18.57;37.04;100969.22;5030492;28;20404;-71
2021/12/26 02:09:01;;;;;;;3.58;1.23;;;;;;;18.59;37.09;100974.41;5047489;28;20562;-71
2021/12/26 02:11:27;;;;;;;2.95;1.40;;;;;;;18.59;37.25;100969.94;5013830;28;20108;-71
2021/12/26 02:13:52;;;;;;;2.95;1.33;;;;;;;18.59;36.80;100967.28;5047485;28;20126;-71
2021/12/26 02:16:17;;;;;;;3.78;1.40;;;;;;;18.56;36.74;100956.09;5027686;28;20049;-71
2021/12/26 02:18:43;;;;;;;3.03;1.10;;;;;;;18.55;36.46;100954.38;5022887;28;20187;-71
2021/12/26 02:23:45;;;;;;;5.63;1.20;;;;;;;18.53;37.00;100961.69;5047596;28;20106;-71
2021/12/26 02:28:44;;;;;;;2.75;1.25;;;;;;;18.53;36.65;100951.88;5027881;28;20061;-71
2021/12/26 02:31:09;;;;;;;3.05;1.10;;;;;;;18.57;37.12;100950.63;5014931;28;20080;-70
2021/12/26 02:33:35;;;;;;;2.42;1.00;;;;;;;18.55;36.66;100944.63;4993917;28;20065;-71
2021/12/26 02:36:00;;;;;;;3.08;1.20;;;;;;;18.53;36.34;100941.25;4976809;28;20053;-71
2021/12/26 02:38:26;;;;;;;3.35;1.00;;;;;;;18.51;36.09;100935.22;5027312;28;20041;-71
2021/12/26 02:40:52;;;;;;;3.72;1.30;;;;;;;18.52;36.63;100941.38;4993987;28;20037;-71
2021/12/26 02:43:19;;;;;;;2.63;1.02;;;;;;;18.53;36.51;100924.47;5027162;28;20037;-70
2021/12/26 02:45:44;;;;;;;3.28;1.20;;;;;;;18.56;36.45;100929.53;5027711;28;20132;-71
2021/12/26 02:48:10;;;;;;;2.88;1.02;;;;;;;18.54;36.22;100926.97;5026963;28;20047;-70
2021/12/26 02:50:38;;;;;;;2.58;1.02;;;;;;;18.56;36.83;100924.22;5010096;28;20060;-71
2021/12/26 02:53:04;;;;;;;3.75;1.10;;;;;;;18.53;36.57;100922.66;5028145;28;20037;-70
2021/12/26 02:55:29;;;;;;;3.50;1.10;;;;;;;18.51;36.16;100921.94;5031261;28;20092;-70
2021/12/26 02:57:57;;;;;;;3.00;0.98;;;;;;;18.50;36.42;100923.75;5031337;28;20033;-71
2021/12/26 03:00:24;;;;;;;2.65;0.93;;;;;;;18.51;36.44;100911.31;5030433;28;20497;-71
2021/12/26 03:02:52;;;;;;;2.53;1.00;;;;;;;18.51;35.92;100911.31;5030808;28;20501;-71
2021/12/26 03:05:18;;;;;;;2.53;1.08;;;;;;;18.52;36.54;100905.03;5012800;28;20064;-71
2021/12/26 03:07:45;;;;;;;3.47;1.25;;;;;;;18.53;36.46;100898.75;5031180;28;20502;-71
2021/12/26 03:10:17;;;;;;;2.33;0.95;;;;;;;18.52;36.08;100897.06;5030589;28;20444;-71
2021/12/26 03:12:42;;;;;;;3.15;1.08;;;;;;;18.53;36.58;100896.09;5013514;28;20072;-67
2021/12/26 03:15:10;;;;;;;2.60;1.10;;;;;;;18.50;36.71;100899.03;5030888;28;20485;-70
2021/12/26 03:17:38;;;;;;;2.38;0.90;;;;;;;18.50;36.25;100899.03;5017227;28;20045;-71
2021/12/26 03:20:10;;;;;;;2.28;1.05;;;;;;;18.48;35.69;100895.66;5032580;28;20063;-71
2021/12/26 03:22:36;;;;;;;2.53;1.05;;;;;;;18.50;36.18;100891.06;5050687;28;20049;-71
2021/12/26 03:25:02;;;;;;;2.15;0.93;;;;;;;18.54;36.28;100888.94;5015950;28;20044;-70
2021/12/26 03:27:28;;;;;;;2.20;0.90;;;;;;;18.56;36.14;100887.00;5016419;28;20041;-71
2021/12/26 03:29:54;;;;;;;2.50;1.08;;;;;;;18.55;35.95;100880.88;5050668;28;20037;-71
2021/12/26 03:32:19;;;;;;;2.53;0.90;;;;;;;18.54;35.69;100883.63;5050005;28;20075;-71
2021/12/26 03:34:46;;;;;;;2.45;0.90;;;;;;;18.51;36.00;100879.44;5050133;28;20489;-70
2021/12/26 03:37:12;;;;;;;2.55;1.02;;;;;;;18.53;36.45;100872.19;5025579;28;20493;-71
2021/12/26 03:39:38;;;;;;;2.28;0.85;;;;;;;18.51;36.01;100890.06;5012661;28;20048;-71
2021/12/26 03:42:04;;;;;;;2.40;0.98;;;;;;;18.50;36.18;100881.25;5029395;28;20493;-70
2021/12/26 03:44:29;;;;;;;3.35;0.93;;;;;;;18.55;36.66;100883.53;5030097;28;20037;-71
2021/12/26 03:46:54;;;;;;;2.42;1.00;;;;;;;18.56;36.30;100877.22;4979788;28;20033;-71
2021/12/26 03:49:20;;;;;;;2.60;1.02;;;;;;;18.60;36.01;100880.44;5011590;28;20049;-71
2021/12/26 03:51:45;;;;;;;2.65;0.95;;;;;;;18.59;36.03;100882.25;5030380;28;20038;-71
2021/12/26 03:54:11;;;;;;;1.85;0.80;;;;;;;18.56;35.96;100884.34;5012103;28;20102;-71
2021/12/26 03:56:36;;;;;;;3.33;1.05;;;;;;;18.55;36.18;100880.88;5012140;28;20033;-71
2021/12/26 03:59:01;;;;;;;3.97;1.00;;;;;;;18.56;35.86;100879.03;5011595;28;20045;-70
2021/12/26 04:01:27;;;;;;;2.03;0.90;;;;;;;18.52;35.83;100878.47;5029845;28;20037;-71
2021/12/26 04:03:52;;;;;;;2.22;0.98;;;;;;;18.58;36.05;100874.41;5011550;28;20524;-71
2021/12/26 04:06:18;;;;;;;2.03;0.95;;;;;;;18.61;36.10;100874.97;5011318;28;20075;-70
2021/12/26 04:08:43;;;;;;;3.40;0.98;;;;;;;18.62;35.91;100871.34;5011292;28;20406;-71
2021/12/26 04:11:08;;;;;;;2.35;0.90;;;;;;;18.61;35.55;100882.09;5029359;28;20052;-71
2021/12/26 04:13:35;;;;;;;2.38;1.00;;;;;;;18.60;35.45;100878.63;5012118;28;20041;-71
2021/12/26 04:16:01;;;;;;;1.85;0.80;;;;;;;18.57;36.10;100884.19;5011745;28;20034;-69
2021/12/26 04:18:26;;;;;;;3.25;1.00;;;;;;;18.56;35.57;100881.69;5037404;28;20052;-71
2021/12/26 04:20:52;;;;;;;2.40;0.88;;;;;;;18.54;36.03;100884.47;5011041;28;20128;-71
2021/12/26 04:23:17;;;;;;;2.17;0.80;;;;;;;18.57;35.87;100884.19;5029020;28;20500;-71
2021/12/26 04:25:42;;;;;;;2.25;0.95;;;;;;;18.60;35.88;100873.28;5011845;28;20616;-71
2021/12/26 04:28:08;;;;;;;3.38;1.20;;;;;;;18.61;35.31;100869.66;5029215;28;20505;-70
2021/12/26 04:30:33;;;;;;;2.08;0.80;;;;;;;18.60;35.62;100873.28;5011499;28;20410;-71
2021/12/26 04:32:59;;;;;;;2.05;1.00;;;;;;;18.58;35.52;100869.94;5011180;28;20045;-70
2021/12/26 04:35:24;;;;;;;1.75;0.80;;;;;;;18.57;35.42;100878.88;5028600;28;20041;-71
2021/12/26 04:37:50;;;;;;;1.90;0.90;;;;;;;18.59;36.16;100865.47;5011696;28;20099;-71
2021/12/26 04:40:16;;;;;;;2.05;0.80;;;;;;;18.57;36.10;100873.56;5010974;28;20493;-71
2021/12/26 04:42:43;;;;;;;1.80;0.98;;;;;;;18.57;35.65;100870.91;5028607;28;20099;-70
2021/12/26 04:45:09;;;;;;;2.03;0.98;;;;;;;18.60;35.66;100867.16;5028573;28;20424;-70
2021/12/26 04:47:38;;;;;;;1.77;0.82;;;;;;;18.62;35.76;100871.34;5027714;28;20041;-71
2021/12/26 04:50:05;;;;;;;1.73;0.75;;;;;;;18.63;35.04;100870.38;5010563;28;20121;-70
2021/12/26 04:52:31;;;;;;;2.28;0.90;;;;;;;18.62;35.91;100866.03;5010662;28;20810;-71
2021/12/26 04:54:57;;;;;;;1.92;0.80;;;;;;;18.60;35.61;100875.97;5010787;28;20049;-71
2021/12/26 04:57:22;;;;;;;2.20;1.00;;;;;;;18.59;36.03;100862.81;5028198;28;20045;-71
2021/12/26 04:59:48;;;;;;;1.60;0.90;;;;;;;18.57;35.12;100862.94;5028730;28;20037;-71
2021/12/26 05:02:14;;;;;;;2.38;1.00;;;;;;;18.55;35.25;100859.59;5027523;28;20533;-71
2021/12/26 05:04:40;;;;;;;2.13;1.00;;;;;;;18.57;35.63;100854.97;5028851;28;20045;-71
2021/12/26 05:07:05;;;;;;;1.95;0.90;;;;;;;18.61;36.04;100856.38;5011053;28;20042;-71
2021/12/26 05:09:31;;;;;;;2.25;0.82;;;;;;;18.62;35.60;100852.75;5028743;28;20548;-71
2021/12/26 05:11:58;;;;;;;2.08;0.80;;;;;;;18.58;35.40;100859.31;5028411;28;20064;-71
2021/12/26 05:14:24;;;;;;;1.77;0.80;;;;;;;18.57;35.10;100852.31;5026534;28;20043;-71
2021/12/26 05:16:49;;;;;;;2.20;0.85;;;;;;;18.53;35.05;100850.94;5028206;28;20037;-71
2021/12/26 05:19:15;;;;;;;2.80;1.08;;;;;;;18.54;35.34;100841.13;5045267;28;20029;-70
2021/12/26 05:21:40;;;;;;;2.58;0.90;;;;;;;18.52;35.39;100832.44;5044646;28;20052;-71
2021/12/26 05:24:06;;;;;;;1.98;0.90;;;;;;;18.51;35.46;100842.25;5027880;28;20048;-71
2021/12/26 05:26:31;;;;;;;2.10;0.90;;;;;;;18.55;35.85;100842.81;5010694;28;20045;-71
2021/12/26 05:28:56;;;;;;;1.75;0.80;;;;;;;18.55;35.66;100843.66;5010536;28;20056;-71
2021/12/26 05:31:22;;;;;;;2.10;0.82;;;;;;;18.60;35.59;100841.41;5027511;28;20056;-71
2021/12/26 05:33:47;;;;;;;1.60;0.75;;;;;;;18.57;35.18;100844.34;5027910;28;20754;-70
2021/12/26 05:36:13;;;;;;;2.88;1.05;;;;;;;18.54;35.58;100841.13;5027882;28;20045;-71
2021/12/26 05:38:38;;;;;;;2.08;0.85;;;;;;;18.54;35.22;100839.31;5028269;28;20401;-71
2021/12/26 05:41:04;;;;;;;1.92;0.90;;;;;;;18.52;35.48;100843.06;5027806;28;20131;-71
2021/12/26 05:43:29;;;;;;;1.10;0.60;;;;;;;18.53;35.21;100839.47;5026945;28;20048;-70
2021/12/26 05:45:54;;;;;;;2.30;0.90;;;;;;;18.55;35.45;100827.72;5028184;28;20046;-71
2021/12/26 05:48:20;;;;;;;2.22;1.00;;;;;;;18.57;35.25;100831.06;5009958;28;20075;-70
2021/12/26 05:50:45;;;;;;;1.83;0.85;;;;;;;18.60;35.01;100819.31;5027982;28;20045;-71
2021/12/26 05:53:11;;;;;;;1.77;0.80;;;;;;;18.59;35.60;100820.31;5027529;28;20046;-72
2021/12/26 05:55:36;;;;;;;2.08;0.90;;;;;;;18.65;36.15;100823.25;5028631;28;20073;-72
2021/12/26 05:58:02;;;;;;;2.40;0.95;;;;;;;18.66;36.79;100819.59;5025668;28;20516;-67
2021/12/26 06:00:27;;;;;;;2.28;0.85;;;;;;;18.59;35.85;100818.50;5020783;28;20402;-72
2021/12/26 06:02:54;;;;;;;2.53;1.00;;;;;;;18.62;37.21;100820.88;5034440;28;20133;-72
2021/12/26 06:05:20;;;;;;;6.32;0.95;;;;;;;18.67;37.45;100823.91;4998084;28;20057;-73
2021/12/26 06:07:45;;;;;;;4.80;0.90;;;;;;;18.71;37.59;100830.66;5032010;28;20041;-71
2021/12/26 06:10:10;;;;;;;2.25;0.90;;;;;;;18.81;37.17;100827.19;5035732;28;20536;-73
2021/12/26 06:12:36;;;;;;;2.53;0.90;;;;;;;18.80;36.58;100820.19;5027629;28;20042;-73
2021/12/26 06:15:03;;;;;;;2.20;0.98;;;;;;;18.43;35.35;100823.53;5027143;28;20132;-72
2021/12/26 06:17:28;;;;;;;7.18;0.93;;;;;;;18.49;36.49;100815.84;5029855;28;20625;-72
2021/12/26 06:19:54;;;;;;;5.13;1.00;;;;;;;18.55;36.70;100822.41;5043800;28;20037;-73
2021/12/26 06:22:19;;;;;;;3.47;1.00;;;;;;;18.55;36.74;100830.38;5031805;28;20119;-72
2021/12/26 06:24:45;;;;;;;2.47;0.80;;;;;;;18.60;36.81;100832.59;5009833;28;20061;-73
2021/12/26 06:27:10;;;;;;;3.47;0.93;;;;;;;18.62;36.46;100828.84;5014069;28;20037;-72
2021/12/26 06:29:36;;;;;;;3.33;1.00;;;;;;;18.62;37.39;100828.84;5031379;28;20418;-73
2021/12/26 06:32:01;;;;;;;3.10;1.10;;;;;;;18.65;36.98;100823.25;5031170;28;20068;-72
2021/12/26 06:34:29;;;;;;;5.57;1.00;;;;;;;18.67;36.84;100831.06;5031072;28;20099;-73
2021/12/26 06:36:54;;;;;;;4.50;0.95;;;;;;;18.63;36.49;100825.19;5031174;28;20033;-73
2021/12/26 06:39:20;;;;;;;4.18;0.98;;;;;;;18.64;37.32;100829.53;5049805;28;20139;-73
2021/12/26 06:41:45;;;;;;;2.95;1.05;;;;;;;18.63;37.22;100830.50;5021182;28;20502;-73
2021/12/26 06:44:11;;;;;;;2.35;0.90;;;;;;;18.61;36.78;100827.13;5037987;28;20531;-73
2021/12/26 06:46:36;;;;;;;3.28;0.80;;;;;;;18.68;37.66;100828.28;5032717;28;20103;-72
2021/12/26 06:49:02;;;;;;;3.20;0.80;;;;;;;18.80;37.41;100825.50;5015005;28;20034;-66
2021/12/26 06:51:27;;;;;;;2.22;0.90;;;;;;;18.65;36.81;100817.94;5012688;28;20498;-65
2021/12/26 06:53:53;;;;;;;2.50;0.88;;;;;;;18.54;35.61;100815.41;5030524;28;20045;-66
2021/12/26 06:56:18;;;;;;;1.85;0.80;;;;;;;18.47;35.96;100816.94;5028844;28;20401;-65
2021/12/26 06:58:44;;;;;;;2.08;0.90;;;;;;;18.41;35.86;100807.72;5030222;28;20038;-65
2021/12/26 07:01:10;;;;;;;4.05;1.55;;;;;;;18.34;35.70;100806.59;4997086;28;20106;-65
2021/12/26 07:03:36;;;;;;;2.25;0.70;;;;;;;18.30;35.93;100813.16;5031791;28;20049;-65
2021/12/26 07:06:02;;;;;;;3.65;1.00;;;;;;;18.30;36.11;100813.16;5030211;28;20076;-66
2021/12/26 07:08:27;;;;;;;4.85;1.17;;;;;;;18.02;35.68;100807.66;5030543;28;20049;-74
2021/12/26 07:10:52;;;;;;;1.77;0.85;;;;;;;18.16;36.54;100800.28;5031115;28;20045;-72
2021/12/26 07:13:18;;;;;;;2.30;0.73;;;;;;;18.28;36.51;100807.16;5014070;28;20083;-73
2021/12/26 07:15:43;;;;;;;2.53;0.90;;;;;;;18.34;36.41;100808.41;5030688;28;20044;-73
2021/12/26 07:18:09;;;;;;;5.32;0.93;;;;;;;18.36;36.48;100809.09;5021912;28;20045;-73
2021/12/26 07:20:34;;;;;;;2.97;0.90;;;;;;;18.37;36.26;100805.47;5050329;28;20052;-73
2021/12/26 07:23:00;;;;;;;3.03;1.10;;;;;;;18.38;36.36;100807.16;5019278;28;20083;-72
2021/12/26 07:25:25;;;;;;;3.47;0.90;;;;;;;18.43;36.32;100808.41;5038324;28;20394;-72
2021/12/26 07:27:51;;;;;;;2.80;0.90;;;;;;;18.44;36.58;100799.47;5012628;28;20056;-73
2021/12/26 07:30:16;;;;;;;3.17;1.50;;;;;;;18.47;36.48;100806.31;5030131;28;20139;-73
2021/12/26 07:32:42;;;;;;;2.40;0.88;;;;;;;18.50;36.35;100804.22;5030493;28;20049;-73
2021/12/26 07:35:07;;;;;;;2.15;0.93;;;;;;;18.58;37.35;100800.84;5011795;28;20041;-76
2021/12/26 07:37:33;;;;;;;5.63;1.00;;;;;;;18.59;37.00;100802.53;5012269;28;20044;-73
2021/12/26 07:39:58;;;;;;;7.28;1.08;;;;;;;18.54;36.87;100799.47;5013034;28;20044;-73
2021/12/26 07:42:24;;;;;;;3.80;1.45;;;;;;;18.61;37.93;100795.25;5029552;28;20481;-73
2021/12/26 07:44:49;;;;;;;2.55;1.00;;;;;;;18.59;37.08;100799.88;5036176;28;20122;-73
2021/12/26 07:47:15;;;;;;;7.03;1.05;;;;;;;18.60;36.86;100803.38;5032391;28;20505;-73
2021/12/26 07:49:40;;;;;;;2.10;1.05;;;;;;;18.60;37.13;100803.38;5011275;28;20041;-73
2021/12/26 07:52:11;;;;;;;3.28;1.10;;;;;;;18.60;37.24;100796.25;5008446;28;20065;-73
2021/12/26 07:54:37;;;;;;;3.38;1.08;;;;;;;18.62;37.19;100804.94;5028998;28;20049;-73
2021/12/26 07:57:03;;;;;;;4.78;0.82;;;;;;;18.68;38.54;100796.38;5027854;28;20498;-72
2021/12/26 07:59:28;;;;;;;5.03;0.98;;;;;;;18.70;37.98;100810.34;5038842;28;20051;-75
2021/12/26 08:01:53;;;;;;;3.72;1.20;;;;;;;18.64;37.19;100810.91;5030693;28;20486;-73
2021/12/26 08:04:19;;;;;;;3.55;1.30;;;;;;;18.54;37.69;100810.09;5013329;28;20077;-72
2021/12/26 08:06:44;;;;;;;7.53;0.90;;;;;;;18.53;37.56;100813.72;5018986;28;20093;-73
2021/12/26 08:09:10;;;;;;;4.80;1.15;;;;;;;18.25;36.71;100821.53;5025721;28;20037;-72
2021/12/26 08:11:35;;;;;;;4.45;1.13;;;;;;;18.34;37.39;100811.06;5029410;28;20498;-72
2021/12/26 08:14:01;;;;;;;4.68;0.82;;;;;;;18.36;37.31;100811.75;5012045;28;20083;-69
2021/12/26 08:16:27;;;;;;;4.80;1.10;;;;;;;18.36;36.61;100815.25;5023346;28;20076;-73
2021/12/26 08:18:53;;;;;;;5.13;0.90;;;;;;;18.38;37.24;100815.13;5024247;28;20038;-73
2021/12/26 08:21:19;;;;;;;3.05;0.98;;;;;;;18.41;37.38;100810.38;5027244;28;20763;-73
2021/12/26 08:23:44;;;;;;;2.70;1.05;;;;;;;18.42;36.95;100812.03;5028955;28;20130;-73
2021/12/26 08:26:10;;;;;;;6.05;1.20;;;;;;;18.48;36.40;100808.81;5033052;28;20429;-73
2021/12/26 08:28:35;;;;;;;2.53;1.05;;;;;;;18.49;36.93;100812.34;5022709;28;20037;-72
2021/12/26 08:31:01;;;;;;;6.90;1.67;;;;;;;18.51;36.57;100810.38;5038068;28;20536;-70
2021/12/26 08:33:26;;;;;;;4.43;1.23;;;;;;;18.54;36.71;100809.25;5049192;28;20040;-72
2021/12/26 08:35:52;;;;;;;2.83;1.10;;;;;;;18.55;37.05;100801.16;5041139;28;20110;-72
2021/12/26 08:38:20;;;;;;;2.45;0.90;;;;;;;18.55;36.62;100809.13;5027682;28;20041;-72
2021/12/26 08:40:49;;;;;;;4.07;1.00;;;;;;;18.61;36.81;100811.19;5011013;28;20045;-72
2021/12/26 08:43:15;;;;;;;2.80;1.00;;;;;;;18.58;36.69;100815.97;5011661;28;20068;-75
2021/12/26 08:45:41;;;;;;;2.95;1.10;;;;;;;18.68;36.96;100803.53;4997100;28;20413;-73
2021/12/26 08:48:06;;;;;;;5.40;1.10;;;;;;;18.66;36.83;100798.34;5010337;28;20430;-72
2021/12/26 08:50:32;;;;;;;5.43;0.90;;;;;;;18.69;36.98;100800.72;5025517;28;20038;-72
2021/12/26 08:52:57;;;;;;;4.60;1.00;;;;;;;18.68;37.07;100801.72;5029097;28;20045;-72
2021/12/26 08:55:24;;;;;;;3.75;1.02;;;;;;;18.67;36.91;100802.66;5028506;28;20048;-72
2021/12/26 08:57:53;;;;;;;3.42;1.00;;;;;;;18.67;36.48;100809.81;4995447;28;20045;-72
2021/12/26 09:00:19;;;;;;;8.13;1.30;;;;;;;18.63;36.71;100809.25;5010130;28;20042;-72
2021/12/26 09:02:44;;;;;;;2.53;1.08;;;;;;;18.62;36.13;100812.91;4994818;28;20042;-73
2021/12/26 09:05:10;;;;;;;5.13;1.20;;;;;;;18.63;36.46;100819.88;5028385;28;20045;-72
2021/12/26 09:07:35;;;;;;;3.70;1.30;;;;;;;18.66;36.24;100816.09;5011193;28;20044;-72
2021/12/26 09:10:01;;;;;;;3.95;1.10;;;;;;;18.68;36.48;100815.00;5028601;28;20187;-70
2021/12/26 09:12:27;;;;;;;3.08;0.90;;;;;;;18.70;36.06;100813.00;5028893;28;20064;-72
2021/12/26 09:14:52;;;;;;;2.10;0.95;;;;;;;18.67;36.70;100823.91;5028758;28;20053;-72
2021/12/26 09:17:17;;;;;;;4.85;1.17;;;;;;;18.66;36.01;100824.91;5011374;28;20041;-73
2021/12/26 09:19:43;;;;;;;2.97;1.02;;;;;;;18.64;35.97;100820.72;5014060;28;20087;-72
2021/12/26 09:22:10;;;;;;;3.30;1.15;;;;;;;18.63;36.28;100825.19;5013884;28;20052;-72
2021/12/26 09:24:35;;;;;;;2.75;0.98;;;;;;;18.66;36.21;100818.75;5048508;28;20056;-72
2021/12/26 09:27:01;;;;;;;2.38;1.10;;;;;;;18.68;35.97;100817.66;5047925;28;20469;-71
2021/12/26 09:29:26;;;;;;;2.28;1.00;;;;;;;18.74;36.87;100821.59;5013245;28;20425;-69
2021/12/26 09:31:53;;;;;;;3.03;1.00;;;;;;;18.66;35.58;100824.06;5012530;28;20041;-69
2021/12/26 09:34:19;;;;;;;3.20;1.13;;;;;;;18.55;35.92;100817.09;5009940;28;20080;-70
2021/12/26 09:36:45;;;;;;;2.33;0.85;;;;;;;18.53;36.16;100816.38;5012153;28;20037;-70
2021/12/26 09:39:10;;;;;;;3.75;1.05;;;;;;;18.59;36.78;100817.66;5002163;28;20037;-70
2021/12/26 09:41:37;;;;;;;4.13;1.13;;;;;;;18.58;36.61;100808.00;5015979;28;20040;-70
2021/12/26 09:44:02;;;;;;;2.63;1.10;;;;;;;18.58;36.77;100802.66;5027688;28;20045;-74
2021/12/26 09:46:31;;;;;;;4.20;1.40;;;;;;;18.60;37.03;100806.03;5033892;28;20417;-70
2021/12/26 09:48:57;;;;;;;2.60;1.20;;;;;;;18.62;36.68;100806.75;4996464;28;20074;-69
2021/12/26 09:51:22;;;;;;;2.17;0.95;;;;;;;18.70;36.52;100802.38;5012162;28;20037;-69
2021/12/26 09:53:47;;;;;;;3.83;1.35;;;;;;;18.69;36.97;100798.06;5010383;28;20505;-69
2021/12/26 09:56:14;;;;;;;3.10;1.17;;;;;;;18.70;37.46;100797.06;5026223;28;20041;-69
2021/12/26 09:59:00;;;;;;;3.20;1.00;;;;;;;18.60;37.70;100796.25;5028703;28;20099;-69
2021/12/26 10:01:39;;;;;;;4.03;1.25;;;;;;;18.64;37.63;100789.66;5026739;28;20124;-69
2021/12/26 10:04:23;;;;;;;2.97;1.02;;;;;;;18.61;37.53;100789.94;5028336;28;20037;-69
2021/12/26 10:06:50;;;;;;;8.73;1.25;;;;;;;18.58;37.30;100787.56;5031641;28;20405;-70
2021/12/26 10:09:17;;;;;;;3.50;1.20;;;;;;;18.60;36.87;100787.44;5029690;28;20080;-71
2021/12/26 10:11:46;;;;;;;4.70;1.10;;;;;;;18.59;37.44;100783.13;5041611;28;20537;-73
2021/12/26 10:14:14;;;;;;;3.80;1.23;;;;;;;18.65;37.25;100775.41;5050122;28;20041;-72
2021/12/26 10:16:42;;;;;;;3.25;1.20;;;;;;;18.66;37.61;100771.78;5043426;28;20045;-71
2021/12/26 10:19:08;;;;;;;3.30;1.15;;;;;;;18.76;37.25;100770.94;5051136;28;20043;-71
2021/12/26 10:21:45;;;;;;;3.28;1.30;;;;;;;18.73;37.44;100758.78;5051811;28;20037;-70
2021/12/26 10:24:14;;;;;;;2.15;1.02;;;;;;;18.72;37.05;100770.38;5050532;28;20132;-73
2021/12/26 10:26:45;;;;;;;2.25;1.00;;;;;;;18.69;37.11;100752.88;5051727;28;20049;-72
2021/12/26 10:29:13;;;;;;;4.32;1.50;;;;;;;18.69;36.75;100758.19;5050406;28;20073;-72
2021/12/26 10:32:06;;;;;;;3.88;1.15;;;;;;;18.66;37.10;100753.16;5039113;28;20049;-72
2021/12/26 10:34:37;;;;;;;2.72;1.05;;;;;;;18.68;37.47;100750.38;5039472;28;20076;-72
2021/12/26 10:37:05;;;;;;;3.17;1.23;;;;;;;18.67;37.14;100746.88;5024968;28;20076;-71
2021/12/26 10:39:45;;;;;;;4.28;1.27;;;;;;;18.65;37.16;100735.56;5028056;28;20129;-72
2021/12/26 10:42:16;;;;;;;2.85;1.10;;;;;;;18.55;36.15;100734.75;5041702;28;20100;-72
2021/12/26 10:45:06;;;;;;;4.55;1.13;;;;;;;18.59;36.84;100729.97;4997603;28;20049;-72
2021/12/26 10:47:34;;;;;;;5.20;1.30;;;;;;;18.68;37.83;100724.66;5023373;28;20045;-72
2021/12/26 10:50:11;;;;;;;3.28;1.15;;;;;;;18.78;38.24;100714.03;5039682;28;20059;-72
2021/12/26 10:52:41;;;;;;;2.65;1.15;;;;;;;18.80;38.52;100721.84;5013095;28;20513;-73
2021/12/26 10:55:11;;;;;;;3.03;0.93;;;;;;;18.82;38.60;100722.53;5011748;28;20048;-72
2021/12/26 10:57:38;;;;;;;;;;;;;;;18.80;38.84;100719.19;5013623;28;20128;-71
2021/12/26 11:00:26;;;;;;;6.75;1.40;;;;;;;18.79;38.03;100717.50;5030584;28;19925;-70
2021/12/26 11:02:53;;;;;;;3.65;1.30;;;;;;;18.81;38.82;100720.88;5013598;28;20080;-71
2021/12/26 11:05:22;;;;;;;4.43;1.33;;;;;;;18.71;37.86;100711.06;5050660;28;20041;-71
2021/12/26 11:08:04;;;;;;;2.23;1.00;;;;;;;18.69;38.56;100717.50;5032909;28;20053;-71
2021/12/26 11:10:38;;;;;;;3.85;1.20;;;;;;;18.68;38.17;100706.03;5027865;28;20046;-72
2021/12/26 11:13:05;;;;;;;3.15;0.90;;;;;;;18.69;38.07;100702.41;5024039;28;20083;-71
2021/12/26 11:15:33;;;;;;;3.58;1.20;;;;;;;18.68;38.41;100706.03;5031876;28;20061;-71
2021/12/26 11:18:01;;;;;;;4.47;1.27;;;;;;;18.67;38.83;100698.19;5015188;28;20026;-71
2021/12/26 11:20:28;;;;;;;5.15;1.27;;;;;;;18.65;38.40;100700.19;5011224;28;20120;-71
2021/12/26 11:22:53;;;;;;;5.07;1.25;;;;;;;18.66;38.14;100697.38;5030276;28;20383;-71
2021/12/26 11:25:19;;;;;;;2.70;1.20;;;;;;;18.65;38.33;100685.06;5032841;28;20508;-71
2021/12/26 11:27:45;;;;;;;3.25;1.10;;;;;;;18.67;38.57;100685.75;4995927;28;20486;-72
2021/12/26 11:30:10;;;;;;;2.75;1.17;;;;;;;18.72;39.14;100680.00;5011481;28;20073;-74
2021/12/26 11:32:36;;;;;;;2.97;1.35;;;;;;;18.52;37.93;100679.22;5036393;28;20044;-71